createdAt,value
2019-05-23T00:01:05.276Z,9.80
2019-05-23T00:03:44.212Z,9.80
2019-05-23T00:06:16.745Z,9.80
2019-05-23T00:08:47.519Z,9.80
2019-05-23T00:11:35.643Z,9.80
2019-05-23T00:14:08.561Z,9.80
2019-05-23T00:16:38.911Z,9.80
2019-05-23T00:19:09.083Z,9.80
2019-05-23T00:21:39.218Z,9.80
2019-05-23T00:24:09.086Z,9.90
2019-05-23T00:26:39.059Z,9.90
2019-05-23T00:29:11.007Z,9.90
2019-05-23T00:32:10.166Z,9.90
2019-05-23T00:34:41.474Z,9.90
2019-05-23T00:37:12.585Z,9.90
2019-05-23T00:39:42.984Z,9.80
2019-05-23T00:42:12.429Z,9.80
2019-05-23T00:44:42.574Z,9.90
2019-05-23T00:47:13.759Z,9.80
2019-05-23T00:49:43.801Z,9.80
2019-05-23T00:52:13.367Z,9.80
2019-05-23T00:54:43.876Z,9.90
2019-05-23T00:57:14.078Z,9.80
2019-05-23T00:59:43.520Z,9.80
2019-05-23T01:02:13.679Z,9.80
2019-05-23T01:04:43.162Z,9.80
2019-05-23T01:07:14.310Z,9.80
2019-05-23T01:09:44.295Z,9.80
2019-05-23T01:12:14.806Z,9.80
2019-05-23T01:14:44.779Z,9.70
2019-05-23T01:17:14.725Z,9.80
2019-05-23T01:19:44.864Z,9.70
2019-05-23T01:22:14.806Z,9.70
2019-05-23T01:24:46.901Z,9.70
2019-05-23T01:27:17.289Z,9.70
2019-05-23T01:29:50.391Z,9.70
2019-05-23T01:32:25.654Z,9.70
2019-05-23T01:34:55.474Z,9.70
2019-05-23T01:37:26.183Z,9.70
2019-05-23T01:39:55.787Z,9.70
2019-05-23T01:42:26.795Z,9.70
2019-05-23T01:44:57.964Z,9.70
2019-05-23T01:47:29.303Z,9.70
2019-05-23T01:49:59.926Z,9.80
2019-05-23T01:52:29.963Z,9.70
2019-05-23T01:55:00.244Z,9.70
2019-05-23T01:57:30.438Z,9.70
2019-05-23T02:00:10.176Z,9.70
2019-05-23T02:02:33.148Z,9.70
2019-05-23T02:05:03.842Z,9.60
2019-05-23T02:07:33.863Z,9.70
2019-05-23T02:10:03.547Z,9.60
2019-05-23T02:12:33.756Z,9.60
2019-05-23T02:15:04.102Z,9.60
2019-05-23T02:17:34.875Z,9.60
2019-05-23T02:20:05.569Z,9.60
2019-05-23T02:22:35.463Z,9.60
2019-05-23T02:25:07.186Z,9.50
2019-05-23T02:27:36.987Z,9.50
2019-05-23T02:30:07.299Z,9.60
2019-05-23T02:32:36.807Z,9.60
2019-05-23T02:35:08.004Z,9.50
2019-05-23T02:37:55.157Z,9.50
2019-05-23T02:40:31.726Z,9.50
2019-05-23T02:43:04.711Z,9.50
2019-05-23T02:45:41.527Z,9.50
2019-05-23T02:48:17.533Z,9.50
2019-05-23T02:50:53.311Z,9.50
2019-05-23T02:53:26.672Z,9.50
2019-05-23T02:55:59.654Z,9.50
2019-05-23T02:58:38.787Z,9.50
2019-05-23T03:01:55.306Z,9.40
2019-05-23T03:04:26.236Z,9.50
2019-05-23T03:06:56.397Z,9.50
2019-05-23T03:09:29.743Z,9.50
2019-05-23T03:12:03.930Z,9.60
2019-05-23T03:14:35.744Z,9.60
2019-05-23T03:17:08.116Z,9.60
2019-05-23T03:19:46.528Z,9.50
2019-05-23T03:22:36.614Z,9.50
2019-05-23T03:25:10.541Z,9.60
2019-05-23T03:27:44.912Z,9.50
2019-05-23T03:30:21.050Z,9.50
2019-05-23T03:32:53.607Z,9.50
2019-05-23T03:35:30.347Z,9.50
2019-05-23T03:38:01.618Z,9.50
2019-05-23T03:40:31.866Z,9.50
2019-05-23T03:43:02.084Z,9.50
2019-05-23T03:45:33.402Z,9.40
2019-05-23T03:48:03.718Z,9.40
2019-05-23T03:50:34.244Z,9.40
2019-05-23T03:53:05.100Z,9.40
2019-05-23T03:55:36.447Z,9.50
2019-05-23T03:58:06.270Z,9.50
2019-05-23T04:00:39.541Z,9.50
2019-05-23T04:03:11.904Z,9.50
2019-05-23T04:05:41.539Z,9.40
2019-05-23T04:08:12.394Z,9.40
2019-05-23T04:10:42.013Z,9.40
2019-05-23T04:13:12.048Z,9.40
2019-05-23T04:15:41.557Z,9.40
2019-05-23T04:18:11.018Z,9.40
2019-05-23T04:20:40.450Z,9.30
2019-05-23T04:23:10.248Z,9.40
2019-05-23T04:25:39.785Z,9.40
2019-05-23T04:28:09.202Z,9.50
2019-05-23T04:30:38.639Z,9.50
2019-05-23T04:33:08.239Z,9.50
2019-05-23T04:35:38.111Z,9.60
2019-05-23T04:38:08.238Z,9.70
2019-05-23T04:40:37.833Z,9.70
2019-05-23T04:43:07.227Z,9.80
2019-05-23T04:45:37.444Z,9.80
2019-05-23T04:48:06.827Z,9.90
2019-05-23T04:50:37.497Z,10.00
2019-05-23T04:53:07.823Z,10.00
2019-05-23T04:55:38.166Z,10.00
2019-05-23T04:58:07.656Z,9.90
2019-05-23T05:00:37.119Z,9.90
2019-05-23T05:03:07.599Z,9.90
2019-05-23T05:05:37.609Z,9.90
2019-05-23T05:08:07.347Z,9.90
2019-05-23T05:10:37.318Z,9.90
2019-05-23T05:13:07.221Z,9.80
2019-05-23T05:15:36.634Z,9.90
2019-05-23T05:18:06.733Z,9.80
2019-05-23T05:20:36.547Z,9.80
2019-05-23T05:23:05.971Z,9.90
2019-05-23T05:25:35.799Z,9.80
2019-05-23T05:28:05.306Z,9.90
2019-05-23T05:30:34.744Z,9.90
2019-05-23T05:33:04.260Z,9.90
2019-05-23T05:35:35.257Z,10.00
2019-05-23T05:38:04.872Z,9.90
2019-05-23T05:40:35.028Z,9.90
2019-05-23T05:43:04.737Z,9.90
2019-05-23T05:45:34.262Z,9.80
2019-05-23T05:48:03.994Z,9.90
2019-05-23T05:50:34.225Z,9.90
2019-05-23T05:53:05.127Z,9.90
2019-05-23T05:55:35.058Z,9.90
2019-05-23T05:58:05.319Z,10.00
2019-05-23T06:00:59.686Z,10.00
2019-05-23T06:03:30.058Z,10.10
2019-05-23T06:06:09.098Z,10.30
2019-05-23T06:08:39.966Z,10.70
2019-05-23T06:11:09.695Z,11.00
2019-05-23T06:13:40.077Z,11.20
2019-05-23T06:16:09.580Z,11.30
2019-05-23T06:18:39.010Z,11.40
2019-05-23T06:21:10.039Z,11.40
2019-05-23T06:23:40.038Z,11.40
2019-05-23T06:26:09.482Z,11.40
2019-05-23T06:28:40.373Z,11.30
2019-05-23T06:31:11.284Z,11.30
2019-05-23T06:33:40.683Z,11.20
2019-05-23T06:36:10.546Z,11.10
2019-05-23T06:38:41.001Z,11.10
2019-05-23T06:41:11.079Z,11.10
2019-05-23T06:43:40.986Z,11.10
2019-05-23T06:46:10.746Z,11.10
2019-05-23T06:48:45.238Z,11.10
2019-05-23T06:51:11.503Z,11.20
2019-05-23T06:53:40.912Z,11.30
2019-05-23T06:56:12.230Z,11.30
2019-05-23T06:58:42.576Z,11.30
2019-05-23T07:01:11.995Z,11.30
2019-05-23T07:03:43.659Z,11.30
2019-05-23T07:06:16.513Z,11.40
2019-05-23T07:08:45.952Z,11.50
2019-05-23T07:11:17.022Z,11.60
2019-05-23T07:13:47.138Z,11.70
2019-05-23T07:16:16.545Z,11.70
2019-05-23T07:18:46.004Z,11.60
2019-05-23T07:21:15.941Z,11.60
2019-05-23T07:23:45.569Z,11.60
2019-05-23T07:26:15.490Z,11.70
2019-05-23T07:29:04.887Z,11.80
2019-05-23T07:31:35.641Z,12.00
2019-05-23T07:34:05.571Z,12.00
2019-05-23T07:36:35.693Z,12.10
2019-05-23T07:39:11.342Z,12.10
2019-05-23T07:41:38.808Z,12.00
2019-05-23T07:44:08.653Z,11.90
2019-05-23T07:46:38.654Z,11.80
2019-05-23T07:49:08.177Z,11.70
2019-05-23T07:51:37.883Z,11.70
2019-05-23T07:54:16.423Z,11.60
2019-05-23T07:56:45.934Z,11.60
2019-05-23T07:59:15.754Z,11.50
2019-05-23T08:01:49.372Z,11.40
2019-05-23T08:04:22.262Z,11.50
2019-05-23T08:06:50.931Z,11.50
2019-05-23T08:09:21.293Z,11.50
2019-05-23T08:11:50.963Z,11.60
2019-05-23T08:14:20.392Z,11.80
2019-05-23T08:16:51.206Z,12.00
2019-05-23T08:19:20.675Z,12.20
2019-05-23T08:21:50.125Z,12.40
2019-05-23T08:24:20.024Z,12.60
2019-05-23T08:26:49.458Z,12.70
2019-05-23T08:29:25.920Z,12.70
2019-05-23T08:31:51.310Z,12.80
2019-05-23T08:34:39.526Z,12.90
2019-05-23T08:36:52.312Z,12.80
2019-05-23T08:39:22.158Z,12.90
2019-05-23T08:41:51.707Z,12.90
2019-05-23T08:44:21.130Z,13.00
2019-05-23T08:46:51.173Z,13.20
2019-05-23T08:49:21.002Z,13.40
2019-05-23T08:51:50.396Z,13.60
2019-05-23T08:54:19.799Z,13.80
2019-05-23T08:56:49.230Z,13.70
2019-05-23T08:59:18.653Z,13.60
2019-05-23T09:01:48.555Z,13.40
2019-05-23T09:04:18.707Z,13.30
2019-05-23T09:06:48.132Z,13.30
2019-05-23T09:09:29.338Z,13.40
2019-05-23T09:11:49.301Z,13.50
2019-05-23T09:14:18.769Z,13.60
2019-05-23T09:16:48.991Z,13.70
2019-05-23T09:19:18.446Z,13.90
2019-05-23T09:21:47.866Z,14.00
2019-05-23T09:24:17.329Z,14.00
2019-05-23T09:26:47.832Z,13.90
2019-05-23T09:29:18.014Z,14.00
2019-05-23T09:31:47.399Z,14.00
2019-05-23T09:34:17.539Z,14.00
2019-05-23T09:36:47.028Z,14.10
2019-05-23T09:39:18.757Z,14.20
2019-05-23T09:41:48.251Z,14.40
2019-05-23T09:44:17.660Z,14.80
2019-05-23T09:46:47.080Z,15.40
2019-05-23T09:49:16.580Z,16.00
2019-05-23T09:51:47.445Z,16.50
2019-05-23T09:54:17.694Z,17.10
2019-05-23T09:56:47.129Z,17.50
2019-05-23T09:59:16.642Z,17.70
2019-05-23T10:01:46.218Z,18.00
2019-05-23T10:04:15.602Z,18.20
2019-05-23T10:06:46.333Z,18.20
2019-05-23T10:09:16.552Z,18.10
2019-05-23T10:11:45.981Z,18.00
2019-05-23T10:14:20.541Z,18.30
2019-05-23T10:16:49.942Z,18.30
2019-05-23T10:19:19.368Z,18.10
2019-05-23T10:21:48.806Z,18.20
2019-05-23T10:24:18.598Z,18.40
2019-05-23T10:26:48.375Z,18.80
2019-05-23T10:29:18.150Z,19.20
2019-05-23T10:31:47.551Z,19.20
2019-05-23T10:34:17.071Z,19.30
2019-05-23T10:36:46.693Z,19.40
2019-05-23T10:39:18.120Z,19.60
2019-05-23T10:41:47.733Z,19.60
2019-05-23T10:44:17.486Z,19.60
2019-05-23T10:46:46.920Z,19.60
2019-05-23T10:49:16.376Z,19.60
2019-05-23T10:51:45.822Z,19.50
2019-05-23T10:54:15.447Z,19.50
2019-05-23T10:56:44.859Z,19.70
2019-05-23T10:59:14.442Z,19.80
2019-05-23T11:01:44.471Z,20.10
2019-05-23T11:04:14.025Z,20.30
2019-05-23T11:06:43.782Z,20.50
2019-05-23T11:09:14.276Z,20.60
2019-05-23T11:11:44.126Z,20.60
2019-05-23T11:14:14.353Z,20.50
2019-05-23T11:16:44.056Z,20.40
2019-05-23T11:19:13.482Z,20.40
2019-05-23T11:21:42.891Z,20.50
2019-05-23T11:24:12.323Z,20.60
2019-05-23T11:26:41.736Z,20.70
2019-05-23T11:29:11.251Z,20.60
2019-05-23T11:31:40.776Z,20.20
2019-05-23T11:34:10.426Z,19.80
2019-05-23T11:36:39.853Z,19.70
2019-05-23T11:39:09.849Z,19.60
2019-05-23T11:41:39.642Z,19.70
2019-05-23T11:44:09.383Z,19.80
2019-05-23T11:46:39.542Z,20.00
2019-05-23T11:49:09.494Z,20.10
2019-05-23T11:51:39.304Z,20.20
2019-05-23T11:54:10.277Z,20.30
2019-05-23T11:56:39.885Z,20.20
2019-05-23T11:59:09.923Z,20.10
2019-05-23T12:02:04.947Z,20.00
2019-05-23T12:04:38.408Z,20.10
2019-05-23T12:07:16.063Z,20.00
2019-05-23T12:09:45.554Z,19.90
2019-05-23T12:12:15.029Z,19.90
2019-05-23T12:14:44.494Z,20.00
2019-05-23T12:17:15.807Z,20.00
2019-05-23T12:19:45.835Z,20.10
2019-05-23T12:22:15.813Z,20.10
2019-05-23T12:24:45.251Z,20.20
2019-05-23T12:27:14.737Z,20.20
2019-05-23T12:29:45.567Z,20.30
2019-05-23T12:32:14.970Z,20.20
2019-05-23T12:34:44.412Z,20.30
2019-05-23T12:37:18.945Z,20.30
2019-05-23T12:39:45.185Z,20.40
2019-05-23T12:42:14.657Z,20.20
2019-05-23T12:44:44.267Z,20.20
2019-05-23T12:47:35.655Z,20.30
2019-05-23T12:50:09.752Z,20.20
2019-05-23T12:52:39.175Z,20.00
2019-05-23T12:55:08.890Z,19.90
2019-05-23T12:57:38.458Z,19.80
2019-05-23T13:00:13.876Z,19.60
2019-05-23T13:02:43.482Z,19.60
2019-05-23T13:05:13.124Z,19.60
2019-05-23T13:07:42.621Z,19.60
2019-05-23T13:10:12.897Z,19.70
2019-05-23T13:12:42.430Z,19.70
2019-05-23T13:15:12.387Z,19.80
2019-05-23T13:17:42.173Z,19.80
2019-05-23T13:20:12.446Z,19.70
2019-05-23T13:22:42.878Z,19.70
2019-05-23T13:25:12.924Z,19.80
2019-05-23T13:27:42.358Z,19.80
2019-05-23T13:30:12.927Z,19.70
2019-05-23T13:32:42.923Z,19.60
2019-05-23T13:35:13.678Z,19.60
2019-05-23T13:37:53.260Z,19.60
2019-05-23T13:40:15.198Z,19.60
2019-05-23T13:42:45.170Z,19.70
2019-05-23T13:45:15.718Z,19.80
2019-05-23T13:47:45.170Z,19.80
2019-05-23T13:50:15.879Z,19.80
2019-05-23T13:52:46.298Z,19.80
2019-05-23T13:55:16.002Z,19.80
2019-05-23T13:57:45.650Z,19.90
2019-05-23T14:00:16.475Z,19.90
2019-05-23T14:02:46.013Z,19.90
2019-05-23T14:05:19.072Z,19.80
2019-05-23T14:07:48.221Z,19.70
2019-05-23T14:14:02.483Z,19.70
2019-05-23T14:16:36.619Z,19.50
2019-05-23T14:19:06.545Z,19.50
2019-05-23T14:21:36.693Z,19.50
2019-05-23T14:24:06.194Z,19.50
2019-05-23T14:26:42.709Z,19.60
2019-05-23T14:29:12.183Z,19.50
2019-05-23T14:31:48.936Z,19.50
2019-05-23T14:34:19.882Z,19.50
2019-05-23T14:37:07.135Z,19.50
2019-05-23T14:39:48.648Z,19.40
2019-05-23T14:42:28.270Z,19.30
2019-05-23T14:44:58.021Z,19.30
2019-05-23T14:47:52.797Z,19.30
2019-05-23T14:50:56.490Z,19.30
2019-05-23T14:53:28.495Z,19.40
2019-05-23T14:55:58.030Z,19.40
2019-05-23T14:58:27.494Z,19.40
2019-05-23T15:00:57.573Z,19.40
2019-05-23T15:03:27.498Z,19.40
2019-05-23T15:05:56.928Z,19.50
2019-05-23T15:08:26.770Z,19.50
2019-05-23T15:10:56.219Z,19.40
2019-05-23T15:13:25.641Z,19.40
2019-05-23T15:15:55.092Z,19.40
2019-05-23T15:18:24.490Z,19.40
2019-05-23T15:20:53.936Z,19.40
2019-05-23T15:23:26.468Z,19.50
2019-05-23T15:25:55.896Z,19.50
2019-05-23T15:28:25.343Z,19.40
2019-05-23T15:30:54.778Z,19.40
2019-05-23T15:33:24.216Z,19.40
2019-05-23T15:35:54.124Z,19.40
2019-05-23T15:38:23.565Z,19.50
2019-05-23T15:40:53.018Z,19.50
2019-05-23T15:43:22.470Z,19.60
2019-05-23T15:45:51.876Z,19.60
2019-05-23T15:48:21.335Z,19.60
2019-05-23T15:50:51.576Z,19.60
2019-05-23T15:53:58.998Z,19.60
2019-05-23T15:56:38.668Z,19.60
2019-05-23T15:59:23.499Z,19.70
2019-05-23T16:02:14.045Z,19.70
2019-05-23T16:04:43.889Z,19.80
2019-05-23T16:07:13.908Z,19.80
2019-05-23T16:09:43.844Z,19.70
2019-05-23T16:12:14.519Z,19.60
2019-05-23T16:14:45.116Z,19.60
2019-05-23T16:17:14.952Z,19.60
2019-05-23T16:19:44.408Z,19.60
2019-05-23T16:22:13.816Z,19.50
2019-05-23T16:24:43.255Z,19.40
2019-05-23T16:27:12.791Z,19.40
2019-05-23T16:29:42.501Z,19.40
2019-05-23T16:32:12.219Z,19.40
2019-05-23T16:34:41.646Z,19.30
2019-05-23T16:37:11.104Z,19.40
2019-05-23T16:39:47.231Z,19.50
2019-05-23T16:42:12.205Z,19.60
2019-05-23T16:44:42.152Z,19.60
2019-05-23T16:47:11.549Z,19.70
2019-05-23T16:49:40.991Z,19.80
2019-05-23T16:52:10.502Z,19.90
2019-05-23T16:54:43.425Z,19.90
2019-05-23T16:57:41.333Z,19.90
2019-05-23T17:00:43.105Z,19.90
2019-05-23T17:03:30.226Z,19.70
2019-05-23T17:06:17.248Z,19.60
2019-05-23T17:09:05.659Z,19.60
2019-05-23T17:11:44.266Z,19.60
2019-05-23T17:14:20.122Z,19.60
2019-05-23T17:16:56.002Z,19.50
2019-05-23T17:19:37.900Z,19.50
2019-05-23T17:22:16.273Z,19.50
2019-05-23T17:25:00.839Z,19.50
2019-05-23T17:27:42.214Z,19.50
2019-05-23T17:30:31.239Z,19.40
2019-05-23T17:33:02.568Z,19.40
2019-05-23T17:35:33.346Z,19.30
2019-05-23T17:38:02.774Z,19.30
2019-05-23T17:40:32.685Z,19.20
2019-05-23T17:43:02.534Z,19.10
2019-05-23T17:45:32.466Z,19.00
2019-05-23T17:48:02.306Z,18.90
2019-05-23T17:50:34.677Z,18.80
2019-05-23T17:53:03.907Z,18.70
2019-05-23T17:55:33.426Z,18.60
2019-05-23T17:58:03.610Z,18.50
2019-05-23T18:00:39.150Z,18.30
2019-05-23T18:03:08.849Z,18.20
2019-05-23T18:05:38.473Z,18.10
2019-05-23T18:08:10.136Z,17.90
2019-05-23T18:10:44.963Z,17.90
2019-05-23T18:13:12.095Z,17.70
2019-05-23T18:16:00.739Z,17.50
2019-05-23T18:18:31.197Z,17.30
2019-05-23T18:21:01.509Z,17.20
2019-05-23T18:23:31.977Z,17.00
2019-05-23T18:26:02.014Z,16.80
2019-05-23T18:28:32.549Z,16.70
2019-05-23T18:31:10.248Z,16.60
2019-05-23T18:33:39.331Z,16.50
2019-05-23T18:36:09.131Z,16.40
2019-05-23T18:38:39.856Z,16.40
2019-05-23T18:41:10.264Z,16.20
2019-05-23T18:43:40.310Z,16.10
2019-05-23T18:46:16.084Z,16.00
2019-05-23T18:48:45.944Z,15.90
2019-05-23T18:51:18.221Z,15.90
2019-05-23T18:53:48.170Z,15.80
2019-05-23T18:56:18.258Z,15.70
2019-05-23T18:58:49.201Z,15.60
2019-05-23T19:01:25.535Z,15.40
2019-05-23T19:03:56.087Z,15.30
2019-05-23T19:06:25.785Z,15.20
2019-05-23T19:08:56.160Z,15.10
2019-05-23T19:11:28.613Z,15.00
2019-05-23T19:13:59.438Z,14.90
2019-05-23T19:16:33.780Z,14.80
2019-05-23T19:19:04.060Z,14.70
2019-05-23T19:21:34.550Z,14.60
2019-05-23T19:24:04.960Z,14.50
2019-05-23T19:26:35.167Z,14.40
2019-05-23T19:29:07.398Z,14.40
2019-05-23T19:31:37.771Z,14.30
2019-05-23T19:34:07.959Z,14.30
2019-05-23T19:36:40.212Z,14.20
2019-05-23T19:39:10.837Z,14.10
2019-05-23T19:41:41.511Z,14.10
2019-05-23T19:44:11.204Z,14.00
2019-05-23T19:46:41.415Z,14.00
2019-05-23T19:49:11.839Z,13.80
2019-05-23T19:51:41.790Z,13.80
2019-05-23T19:54:11.465Z,13.70
2019-05-23T19:56:41.150Z,13.60
2019-05-23T19:59:10.862Z,13.50
2019-05-23T20:01:57.896Z,13.30
2019-05-23T20:04:31.275Z,13.10
2019-05-23T20:07:01.361Z,12.90
2019-05-23T20:09:30.902Z,12.60
2019-05-23T20:12:00.473Z,12.50
2019-05-23T20:14:29.909Z,12.40
2019-05-23T20:17:00.687Z,12.20
2019-05-23T20:19:30.364Z,12.20
2019-05-23T20:21:59.769Z,12.20
2019-05-23T20:24:29.177Z,11.80
2019-05-23T20:26:58.712Z,11.60
2019-05-23T20:29:28.458Z,11.50
2019-05-23T20:31:57.938Z,11.30
2019-05-23T20:34:28.105Z,11.20
2019-05-23T20:36:57.512Z,11.10
2019-05-23T20:39:27.357Z,11.10
2019-05-23T20:42:10.975Z,11.10
2019-05-23T20:44:29.055Z,11.00
2019-05-23T20:46:58.529Z,11.00
2019-05-23T20:49:28.087Z,10.90
2019-05-23T20:51:57.479Z,10.80
2019-05-23T20:54:26.940Z,10.70
2019-05-23T20:56:56.381Z,10.60
2019-05-23T20:59:25.817Z,10.50
2019-05-23T21:01:55.717Z,10.30
2019-05-23T21:04:27.078Z,10.30
2019-05-23T21:06:56.489Z,10.20
2019-05-23T21:09:25.892Z,10.20
2019-05-23T21:11:55.329Z,10.10
2019-05-23T21:14:25.104Z,10.00
2019-05-23T21:16:54.525Z,10.00
2019-05-23T21:19:23.927Z,10.10
2019-05-23T21:21:53.346Z,10.10
2019-05-23T21:24:22.808Z,10.20
2019-05-23T21:26:52.586Z,10.20
2019-05-23T21:29:22.343Z,10.20
2019-05-23T21:31:51.778Z,10.20
2019-05-23T21:34:22.143Z,10.20
2019-05-23T21:36:51.969Z,10.20
2019-05-23T21:39:21.721Z,10.00
2019-05-23T21:41:51.186Z,10.10
2019-05-23T21:44:20.963Z,10.00
2019-05-23T21:46:50.633Z,10.00
2019-05-23T21:49:20.026Z,9.90
2019-05-23T21:51:51.733Z,9.90
2019-05-23T21:54:20.511Z,9.90
2019-05-23T21:56:49.926Z,9.90
2019-05-23T21:59:19.346Z,9.80
2019-05-23T22:02:13.737Z,9.80
2019-05-23T22:04:50.559Z,9.70
2019-05-23T22:07:20.294Z,9.70
2019-05-23T22:09:49.693Z,9.70
2019-05-23T22:12:19.652Z,9.70
2019-05-23T22:14:49.802Z,9.70
2019-05-23T22:17:20.886Z,9.60
2019-05-23T22:19:50.374Z,9.60
2019-05-23T22:22:19.926Z,9.50
2019-05-23T22:24:49.334Z,9.40
2019-05-23T22:27:18.809Z,9.30
2019-05-23T22:29:48.232Z,9.20
2019-05-23T22:32:19.201Z,9.30
2019-05-23T22:35:16.585Z,9.10
2019-05-23T22:37:46.105Z,9.00
2019-05-23T22:40:15.681Z,9.10
2019-05-23T22:42:45.138Z,9.10
2019-05-23T22:45:16.585Z,9.10
2019-05-23T22:47:46.035Z,9.10
2019-05-23T22:50:15.933Z,9.10
2019-05-23T22:52:45.343Z,9.00
2019-05-23T22:55:14.829Z,8.90
2019-05-23T22:57:44.247Z,8.90
2019-05-23T23:00:15.573Z,8.90
2019-05-23T23:02:46.104Z,8.90
2019-05-23T23:05:15.775Z,8.80
2019-05-23T23:07:45.681Z,8.80
2019-05-23T23:10:15.502Z,8.70
2019-05-23T23:12:44.934Z,8.70
2019-05-23T23:15:14.734Z,8.70
2019-05-23T23:17:44.155Z,8.70
2019-05-23T23:20:13.926Z,8.70
2019-05-23T23:22:43.341Z,8.70
2019-05-23T23:25:13.059Z,8.70
2019-05-23T23:27:42.594Z,8.70
2019-05-23T23:30:14.037Z,8.70
2019-05-23T23:32:43.575Z,8.60
2019-05-23T23:35:13.072Z,8.60
2019-05-23T23:37:42.539Z,8.50
2019-05-23T23:40:12.285Z,8.50
2019-05-23T23:42:41.808Z,8.50
2019-05-23T23:45:29.241Z,8.40
2019-05-23T23:48:16.457Z,8.30
2019-05-23T23:51:04.063Z,8.30
2019-05-23T23:53:51.261Z,8.30
2019-05-23T23:56:38.288Z,8.20
2019-05-23T23:59:06.772Z,8.20
